createdAt,value
2019-05-19T00:01:39.309Z,1.85
2019-05-19T00:05:43.531Z,2.37
2019-05-19T00:09:47.634Z,2.10
2019-05-19T00:13:51.750Z,2.50
2019-05-19T00:17:55.814Z,2.85
2019-05-19T00:22:00.025Z,3.08
2019-05-19T00:26:04.172Z,2.77
2019-05-19T00:30:09.936Z,2.83
2019-05-19T00:34:14.188Z,2.37
2019-05-19T00:38:18.222Z,2.47
2019-05-19T00:42:22.443Z,1.87
2019-05-19T00:46:27.763Z,1.98
2019-05-19T00:50:32.046Z,2.17
2019-05-19T00:54:36.064Z,2.53
2019-05-19T00:58:41.689Z,3.40
2019-05-19T01:02:45.757Z,3.10
2019-05-19T01:06:49.915Z,3.80
2019-05-19T01:10:54.322Z,3.57
2019-05-19T01:14:58.505Z,3.67
2019-05-19T01:19:03.028Z,4.27
2019-05-19T01:23:07.122Z,4.43
2019-05-19T01:27:11.315Z,4.03
2019-05-19T01:31:18.439Z,4.27
2019-05-19T01:35:22.600Z,4.17
2019-05-19T01:39:26.767Z,4.40
2019-05-19T01:43:30.910Z,4.47
2019-05-19T01:47:35.200Z,5.00
2019-05-19T01:51:39.440Z,4.03
2019-05-19T01:55:43.703Z,4.35
2019-05-19T01:59:47.896Z,4.40
2019-05-19T02:03:56.014Z,5.00
2019-05-19T02:08:00.068Z,5.10
2019-05-19T02:12:04.126Z,5.20
2019-05-19T02:16:08.487Z,6.10
2019-05-19T02:20:12.691Z,5.70
2019-05-19T02:24:16.961Z,6.40
2019-05-19T02:28:21.108Z,6.40
2019-05-19T02:32:25.269Z,5.90
2019-05-19T02:36:29.342Z,6.73
2019-05-19T02:40:33.697Z,6.75
2019-05-19T02:44:39.425Z,6.55
2019-05-19T02:48:44.090Z,6.30
2019-05-19T02:52:49.852Z,6.50
2019-05-19T02:56:54.164Z,6.30
2019-05-19T03:00:58.360Z,6.37
2019-05-19T03:05:02.649Z,6.87
2019-05-19T03:09:06.901Z,7.47
2019-05-19T03:13:11.050Z,7.23
2019-05-19T03:17:15.312Z,7.80
2019-05-19T03:21:19.520Z,7.30
2019-05-19T03:25:24.022Z,7.80
2019-05-19T03:29:33.089Z,7.63
2019-05-19T03:33:39.056Z,8.65
2019-05-19T03:37:43.204Z,9.20
2019-05-19T03:41:47.373Z,9.10
2019-05-19T03:45:51.698Z,9.93
2019-05-19T03:49:55.781Z,9.93
2019-05-19T03:53:59.954Z,9.70
2019-05-19T03:58:04.177Z,8.73
2019-05-19T04:02:08.158Z,9.57
2019-05-19T04:06:12.344Z,9.87
2019-05-19T04:10:16.388Z,10.47
2019-05-19T04:14:21.045Z,10.60
2019-05-19T04:18:25.345Z,9.73
2019-05-19T04:22:29.491Z,9.80
2019-05-19T04:26:33.580Z,9.67
2019-05-19T04:30:37.652Z,9.93
2019-05-19T04:34:41.665Z,10.50
2019-05-19T04:38:45.827Z,9.43
2019-05-19T04:42:49.986Z,7.70
2019-05-19T04:46:54.183Z,8.63
2019-05-19T04:50:58.167Z,9.43
2019-05-19T04:55:02.257Z,9.47
2019-05-19T04:59:07.446Z,9.27
2019-05-19T05:03:11.694Z,9.67
2019-05-19T05:07:15.720Z,11.33
2019-05-19T05:11:19.810Z,9.90
2019-05-19T05:15:23.923Z,9.47
2019-05-19T05:19:28.144Z,9.60
2019-05-19T05:23:32.300Z,10.00
2019-05-19T05:27:36.506Z,10.27
2019-05-19T05:31:40.562Z,9.17
2019-05-19T05:35:44.608Z,10.17
2019-05-19T05:39:48.683Z,9.83
2019-05-19T05:43:52.919Z,9.93
2019-05-19T05:47:56.942Z,10.10
2019-05-19T05:52:01.013Z,9.57
2019-05-19T05:56:05.017Z,9.23
2019-05-19T06:00:09.525Z,9.73
2019-05-19T06:04:13.493Z,9.87
2019-05-19T06:08:17.600Z,9.67
2019-05-19T06:12:21.835Z,10.07
2019-05-19T06:16:26.090Z,10.43
2019-05-19T06:20:30.327Z,9.68
2019-05-19T06:24:34.347Z,10.20
2019-05-19T06:28:38.454Z,10.10
2019-05-19T06:32:46.541Z,10.67
2019-05-19T06:36:50.709Z,9.73
2019-05-19T06:40:54.845Z,10.57
2019-05-19T06:44:59.059Z,10.45
2019-05-19T06:49:03.307Z,10.72
2019-05-19T06:53:14.188Z,10.75
2019-05-19T06:57:13.331Z,12.03
2019-05-19T07:01:17.698Z,12.35
2019-05-19T07:05:22.047Z,11.73
2019-05-19T07:09:26.509Z,12.43
2019-05-19T07:13:30.867Z,12.93
2019-05-19T07:17:35.199Z,12.73
2019-05-19T07:21:39.349Z,13.08
2019-05-19T07:25:43.572Z,12.37
2019-05-19T07:29:48.261Z,12.05
2019-05-19T07:33:52.729Z,12.03
2019-05-19T07:37:56.945Z,13.57
2019-05-19T07:42:01.430Z,12.98
2019-05-19T07:46:05.563Z,12.80
2019-05-19T07:50:09.683Z,12.68
2019-05-19T07:54:13.847Z,13.65
2019-05-19T07:58:18.199Z,12.80
2019-05-19T08:02:22.484Z,13.85
2019-05-19T08:06:26.657Z,13.10
2019-05-19T08:10:30.970Z,12.23
2019-05-19T08:14:35.184Z,12.58
2019-05-19T08:18:39.392Z,12.53
2019-05-19T08:22:43.492Z,12.23
2019-05-19T08:26:47.778Z,11.83
2019-05-19T08:30:51.936Z,11.60
2019-05-19T08:34:56.137Z,11.18
2019-05-19T08:39:00.401Z,11.38
2019-05-19T08:43:05.578Z,10.85
2019-05-19T08:47:10.010Z,11.25
2019-05-19T08:51:14.167Z,11.10
2019-05-19T08:55:19.615Z,10.98
2019-05-19T08:59:23.882Z,11.05
2019-05-19T09:03:28.180Z,10.18
2019-05-19T09:07:32.302Z,9.43
2019-05-19T09:11:36.628Z,9.80
2019-05-19T09:15:40.846Z,9.43
2019-05-19T09:19:45.038Z,8.25
2019-05-19T09:23:49.197Z,9.10
2019-05-19T09:27:53.398Z,8.75
2019-05-19T09:31:57.579Z,9.40
2019-05-19T09:36:01.768Z,7.33
2019-05-19T09:40:06.330Z,7.83
2019-05-19T09:44:10.501Z,7.12
2019-05-19T09:48:15.602Z,4.72
2019-05-19T09:52:19.949Z,4.67
2019-05-19T09:56:24.221Z,3.98
2019-05-19T10:00:29.165Z,3.37
2019-05-19T10:04:35.667Z,3.30
2019-05-19T10:08:45.692Z,3.10
2019-05-19T10:12:49.746Z,2.02
2019-05-19T10:16:53.912Z,2.85
2019-05-19T10:20:58.062Z,3.27
2019-05-19T10:25:20.220Z,3.55
2019-05-19T10:29:08.552Z,3.85
2019-05-19T10:33:12.640Z,3.77
2019-05-19T10:37:16.720Z,4.67
2019-05-19T10:41:20.958Z,4.05
2019-05-19T10:45:25.196Z,3.30
2019-05-19T10:49:29.475Z,2.00
2019-05-19T10:53:33.555Z,2.20
2019-05-19T10:57:37.897Z,1.27
2019-05-19T11:01:42.054Z,1.00
2019-05-19T11:05:46.350Z,1.35
2019-05-19T11:09:50.388Z,2.45
2019-05-19T11:13:54.526Z,2.27
2019-05-19T11:17:58.706Z,2.27
2019-05-19T11:22:02.854Z,2.05
2019-05-19T11:26:07.034Z,1.95
2019-05-19T11:30:11.399Z,2.00
2019-05-19T11:34:15.547Z,1.67
2019-05-19T11:38:20.742Z,1.90
2019-05-19T11:42:24.984Z,1.42
2019-05-19T11:46:29.409Z,0.82
2019-05-19T11:50:33.547Z,0.40
2019-05-19T11:54:37.690Z,0.50
2019-05-19T11:58:42.128Z,0.42
2019-05-19T12:02:46.329Z,0.40
2019-05-19T12:06:51.480Z,0.40
2019-05-19T12:10:55.619Z,0.30
2019-05-19T12:14:59.747Z,0.33
2019-05-19T12:19:04.048Z,0.40
2019-05-19T12:23:08.191Z,0.40
2019-05-19T12:27:12.222Z,0.40
2019-05-19T12:31:16.820Z,0.50
2019-05-19T12:35:21.038Z,0.70
2019-05-19T12:39:27.053Z,1.25
2019-05-19T12:43:31.307Z,0.78
2019-05-19T12:47:35.413Z,0.90
2019-05-19T12:51:39.516Z,0.90
2019-05-19T12:55:43.831Z,1.15
2019-05-19T12:59:48.030Z,1.50
2019-05-19T13:03:52.175Z,1.35
2019-05-19T13:07:56.428Z,1.62
2019-05-19T13:12:00.629Z,1.72
2019-05-19T13:16:04.762Z,1.30
2019-05-19T13:20:10.098Z,1.50
2019-05-19T13:24:14.228Z,1.40
2019-05-19T13:28:18.407Z,1.30
2019-05-19T13:32:22.576Z,1.37
2019-05-19T13:36:26.815Z,1.17
2019-05-19T13:40:31.106Z,0.80
2019-05-19T13:44:35.364Z,0.80
2019-05-19T13:48:39.625Z,1.00
2019-05-19T13:52:43.858Z,0.80
2019-05-19T13:56:51.909Z,0.80
2019-05-19T14:00:56.037Z,0.88
2019-05-19T14:05:00.091Z,0.75
2019-05-19T14:09:05.478Z,0.80
2019-05-19T14:13:09.828Z,0.85
2019-05-19T14:17:13.970Z,0.68
2019-05-19T14:21:18.055Z,0.70
2019-05-19T14:25:22.317Z,0.88
2019-05-19T14:29:26.686Z,0.70
2019-05-19T14:33:30.831Z,0.80
2019-05-19T14:37:36.382Z,1.02
2019-05-19T14:41:45.393Z,1.00
2019-05-19T14:45:49.515Z,0.90
2019-05-19T14:49:53.616Z,1.02
2019-05-19T14:53:57.750Z,0.80
2019-05-19T14:58:02.040Z,1.10
2019-05-19T15:02:06.256Z,1.00
2019-05-19T15:06:11.461Z,1.10
2019-05-19T15:10:15.965Z,1.42
2019-05-19T15:14:21.221Z,1.20
2019-05-19T15:18:25.328Z,2.30
2019-05-19T15:22:29.896Z,1.45
2019-05-19T15:26:34.113Z,1.85
2019-05-19T15:30:39.266Z,1.60
2019-05-19T15:34:43.397Z,1.50
2019-05-19T15:38:47.557Z,2.37
2019-05-19T15:42:54.288Z,2.00
2019-05-19T15:46:58.593Z,1.12
2019-05-19T15:51:03.023Z,1.20
2019-05-19T15:55:07.381Z,1.00
2019-05-19T15:59:11.481Z,1.00
2019-05-19T16:03:15.747Z,1.00
2019-05-19T16:07:19.892Z,1.15
2019-05-19T16:11:24.553Z,1.10
2019-05-19T16:15:28.691Z,1.00
2019-05-19T16:19:32.879Z,1.35
2019-05-19T16:23:37.315Z,1.25
2019-05-19T16:27:41.429Z,1.00
2019-05-19T16:31:45.604Z,0.80
2019-05-19T16:35:50.917Z,0.80
2019-05-19T16:39:57.510Z,0.90
2019-05-19T16:44:02.210Z,0.70
2019-05-19T16:48:06.639Z,0.65
2019-05-19T16:52:10.915Z,0.80
2019-05-19T16:56:15.244Z,0.80
2019-05-19T17:00:19.595Z,0.90
2019-05-19T17:04:26.200Z,0.80
2019-05-19T17:08:30.449Z,1.00
2019-05-19T17:12:34.715Z,0.60
2019-05-19T17:16:43.720Z,0.85
2019-05-19T17:20:48.015Z,1.10
2019-05-19T17:24:52.225Z,1.02
2019-05-19T17:29:00.739Z,1.00
2019-05-19T17:33:02.290Z,1.00
2019-05-19T17:37:06.568Z,1.10
2019-05-19T17:41:10.732Z,1.10
2019-05-19T17:45:15.340Z,1.70
2019-05-19T17:49:19.526Z,2.47
2019-05-19T17:53:23.641Z,1.90
2019-05-19T17:57:28.034Z,2.40
2019-05-19T18:01:32.259Z,1.55
2019-05-19T18:05:36.828Z,1.40
2019-05-19T18:09:40.926Z,2.33
2019-05-19T18:13:45.144Z,2.27
2019-05-19T18:17:49.303Z,1.45
2019-05-19T18:21:55.107Z,1.82
2019-05-19T18:25:59.290Z,1.52
2019-05-19T18:30:03.674Z,1.30
2019-05-19T18:34:07.712Z,1.60
2019-05-19T18:38:11.923Z,1.20
2019-05-19T18:42:16.176Z,1.47
2019-05-19T18:46:20.372Z,1.00
2019-05-19T18:50:24.469Z,1.17
2019-05-19T18:54:28.635Z,1.10
2019-05-19T18:58:33.766Z,1.20
2019-05-19T19:02:37.989Z,3.10
2019-05-19T19:06:42.179Z,2.52
2019-05-19T19:10:46.497Z,1.60
2019-05-19T19:14:50.877Z,1.10
2019-05-19T19:18:55.026Z,1.10
2019-05-19T19:22:59.210Z,1.00
2019-05-19T19:27:03.334Z,1.12
2019-05-19T19:31:07.520Z,1.20
2019-05-19T19:35:11.708Z,1.35
2019-05-19T19:39:16.248Z,1.25
2019-05-19T19:43:20.588Z,1.32
2019-05-19T19:47:25.164Z,1.10
2019-05-19T19:51:29.694Z,1.40
2019-05-19T19:55:34.507Z,1.27
2019-05-19T19:59:39.059Z,1.40
2019-05-19T20:03:43.242Z,1.60
2019-05-19T20:07:47.515Z,1.50
2019-05-19T20:11:52.175Z,1.35
2019-05-19T20:15:57.646Z,1.87
2019-05-19T20:20:02.003Z,1.72
2019-05-19T20:24:06.144Z,2.10
2019-05-19T20:28:10.310Z,2.40
2019-05-19T20:32:14.518Z,3.12
2019-05-19T20:36:19.924Z,2.42
2019-05-19T20:40:24.242Z,2.20
2019-05-19T20:44:28.385Z,2.42
2019-05-19T20:48:34.513Z,2.27
2019-05-19T20:52:38.601Z,2.77
2019-05-19T20:56:42.752Z,2.12
2019-05-19T21:00:50.334Z,2.10
2019-05-19T21:04:53.946Z,3.08
2019-05-19T21:08:58.095Z,4.53
2019-05-19T21:13:02.295Z,4.03
2019-05-19T21:17:06.483Z,4.85
2019-05-19T21:21:10.719Z,5.12
2019-05-19T21:25:14.715Z,6.40
2019-05-19T21:29:18.988Z,7.35
2019-05-19T21:33:23.231Z,8.93
2019-05-19T21:37:27.331Z,8.77
2019-05-19T21:41:31.455Z,8.50
2019-05-19T21:45:35.620Z,10.37
2019-05-19T21:49:39.880Z,9.40
2019-05-19T21:53:44.038Z,8.60
2019-05-19T21:57:48.064Z,9.47
2019-05-19T22:01:52.284Z,9.13
2019-05-19T22:05:56.325Z,9.20
2019-05-19T22:10:00.470Z,10.00
2019-05-19T22:14:04.908Z,8.67
2019-05-19T22:18:09.103Z,8.45
2019-05-19T22:22:13.222Z,8.57
2019-05-19T22:26:18.048Z,8.43
2019-05-19T22:30:22.325Z,7.93
2019-05-19T22:34:26.445Z,7.63
2019-05-19T22:38:30.539Z,8.40
2019-05-19T22:42:34.762Z,9.00
2019-05-19T22:46:38.994Z,8.73
2019-05-19T22:50:43.087Z,9.27
2019-05-19T22:54:47.197Z,9.63
2019-05-19T22:58:51.328Z,8.90
2019-05-19T23:02:55.617Z,9.57
2019-05-19T23:07:03.380Z,8.43
2019-05-19T23:11:07.592Z,10.20
2019-05-19T23:15:11.852Z,9.93
2019-05-19T23:19:16.021Z,11.90
2019-05-19T23:23:20.403Z,13.00
2019-05-19T23:27:24.518Z,12.33
2019-05-19T23:31:28.627Z,12.20
2019-05-19T23:35:32.584Z,13.13
2019-05-19T23:39:36.618Z,12.50
2019-05-19T23:43:40.734Z,12.80
2019-05-19T23:47:44.851Z,12.17
2019-05-19T23:51:48.853Z,12.20
2019-05-19T23:55:52.873Z,12.70
2019-05-19T23:59:56.910Z,11.63
